Time;durP1;ratioP1;P1;durP2;ratioP2;P2;SDS_P1;SDS_P2;PMS_P1;PMS_P2;Temp;Humidity;BMP_temperature;BMP_pressure;BME280_temperature;BME280_humidity;BME280_pressure;Samples;Min_cycle;Max_cycle;Signal;HPM_P1;HPM_P2
2022/08/10 00:01:09;;;;;;;;;4.00;4.00;;;;;24.13;41.18;101564.88;5080254;27;45322;-61
2022/08/10 00:03:35;;;;;;;;;5.00;5.00;;;;;24.12;41.33;101563.16;5098490;27;45489;-62
2022/08/10 00:06:00;;;;;;;;;5.25;4.25;;;;;24.12;41.39;101562.31;5098672;27;45147;-62
2022/08/10 00:08:26;;;;;;;;;7.50;7.00;;;;;24.09;41.51;101565.31;5098304;27;46305;-63
2022/08/10 00:10:56;;;;;;;;;3.00;3.00;;;;;24.05;41.45;101556.59;5097834;27;45398;-62
2022/08/10 00:13:23;;;;;;;;;7.00;6.00;;;;;24.04;41.75;101557.59;5098661;27;45330;-62
2022/08/10 00:15:49;;;;;;;;;7.00;6.25;;;;;24.00;41.96;101563.50;5098660;27;45487;-63
2022/08/10 00:18:15;;;;;;;;;5.00;5.00;;;;;23.97;41.52;101564.66;5098324;27;45218;-61
2022/08/10 00:20:40;;;;;;;;;5.75;4.75;;;;;23.96;41.98;101571.09;5098500;27;45226;-65
2022/08/10 00:23:06;;;;;;;;;6.25;6.25;;;;;23.95;42.07;101558.50;5098244;27;45267;-63
2022/08/10 00:25:31;;;;;;;;;6.75;5.75;;;;;23.90;42.23;101558.09;5081425;27;45561;-63
2022/08/10 00:27:57;;;;;;;;;5.75;5.00;;;;;23.89;42.07;101561.81;5077316;28;45720;-64
2022/08/10 00:30:22;;;;;;;;;8.00;5.75;;;;;23.82;41.83;101558.81;5077513;28;45307;-64
2022/08/10 00:32:47;;;;;;;;;5.00;5.00;;;;;23.83;42.11;101562.44;5077597;28;45165;-64
2022/08/10 00:35:13;;;;;;;;;6.00;6.00;;;;;23.75;42.46;101554.16;5095407;27;45375;-64
2022/08/10 00:37:38;;;;;;;;;8.00;7.00;;;;;23.73;42.69;101562.44;5098249;27;45297;-63
2022/08/10 00:40:04;;;;;;;;;4.25;4.25;;;;;23.61;42.31;101552.78;5079635;27;45286;-60
2022/08/10 00:42:30;;;;;;;;;6.00;6.00;;;;;23.62;42.61;101557.19;5098463;27;45325;-64
2022/08/10 00:44:56;;;;;;;;;6.75;6.00;;;;;23.54;42.64;101552.44;5098172;27;45623;-61
2022/08/10 00:47:21;;;;;;;;;5.25;5.25;;;;;23.58;42.41;101557.66;5097439;27;46402;-61
2022/08/10 00:49:47;;;;;;;;;4.25;4.25;;;;;23.54;42.52;101555.16;5079250;27;45835;-61
2022/08/10 00:52:14;;;;;;;;;7.00;5.25;;;;;23.52;42.82;101559.03;5088222;27;45456;-62
2022/08/10 00:54:42;;;;;;;;;6.00;6.00;;;;;23.45;42.89;101549.78;5078010;28;45398;-64
2022/08/10 00:57:08;;;;;;;;;5.00;5.00;;;;;23.44;42.95;101551.66;5076581;28;46944;-61
2022/08/10 00:59:34;;;;;;;;;11.50;6.25;;;;;23.42;42.90;101550.91;5077602;28;45431;-61
2022/08/10 01:02:00;;;;;;;;;6.25;6.25;;;;;23.40;42.72;101543.91;5077988;28;45438;-61
2022/08/10 01:04:26;;;;;;;;;6.00;6.00;;;;;23.41;43.06;101554.63;5077992;28;45524;-61
2022/08/10 01:07:03;;;;;;;;;6.50;4.50;;;;;23.40;43.01;101558.34;5077470;28;45348;-60
2022/08/10 01:09:33;;;;;;;;;8.00;6.75;;;;;23.38;43.09;101554.06;5076637;28;45357;-63
2022/08/10 01:12:24;;;;;;;;;5.25;5.25;;;;;23.33;42.68;101554.53;5077802;28;45269;-61
2022/08/10 01:15:02;;;;;;;;;7.33;7.00;;;;;23.35;42.71;101547.09;5077866;28;45383;-61
2022/08/10 01:17:31;;;;;;;;;6.00;6.00;;;;;23.30;42.93;101543.94;5077496;28;46255;-61
2022/08/10 01:20:13;;;;;;;;;6.50;5.25;;;;;23.29;43.25;101553.06;5077369;28;45360;-62
2022/08/10 01:23:03;;;;;;;;;5.00;5.00;;;;;23.23;43.03;101548.25;5076065;28;45243;-63
2022/08/10 01:25:31;;;;;;;;;4.25;3.75;;;;;23.15;43.37;101556.22;5093363;27;45430;-63
2022/08/10 01:28:18;;;;;;;;;5.75;4.50;;;;;23.10;43.81;101545.81;5097187;27;45361;-62
2022/08/10 01:30:45;;;;;;;;;5.00;3.75;;;;;22.97;43.67;101545.25;5096942;27;45312;-64
2022/08/10 01:33:18;;;;;;;;;5.75;3.25;;;;;22.97;44.07;101547.13;5079431;27;45421;-62
2022/08/10 01:35:49;;;;;;;;;4.25;4.00;;;;;22.94;44.08;101540.13;5098034;27;45470;-61
2022/08/10 01:38:23;;;;;;;;;3.00;3.00;;;;;22.87;44.26;101542.53;5097746;27;46219;-62
2022/08/10 01:41:05;;;;;;;;;5.00;4.00;;;;;22.86;43.96;101550.81;5097578;27;45377;-60
2022/08/10 01:43:33;;;;;;;;;3.50;3.50;;;;;22.80;43.95;101545.94;5097696;27;45524;-62
2022/08/10 01:46:00;;;;;;;;;4.00;4.00;;;;;22.77;44.42;101538.94;5097800;27;45507;-61
2022/08/10 01:48:30;;;;;;;;;4.25;4.25;;;;;22.74;44.49;101539.22;5097068;27;45438;-63
2022/08/10 01:51:07;;;;;;;;;3.00;3.00;;;;;22.75;44.78;101540.94;5096777;27;45328;-61
2022/08/10 01:53:54;;;;;;;;;4.00;4.00;;;;;22.63;44.89;101537.50;5097338;27;45423;-59
2022/08/10 01:56:22;;;;;;;;;7.67;5.33;;;;;22.67;44.24;101543.50;5097600;27;45715;-59
2022/08/10 01:58:52;;;;;;;;;5.00;5.00;;;;;22.61;44.73;101541.34;5097019;27;45661;-61
2022/08/10 02:01:22;;;;;;;;;4.00;4.00;;;;;22.59;45.00;101537.94;5096973;27;45426;-60
2022/08/10 02:03:50;;;;;;;;;6.00;6.00;;;;;22.59;44.88;101536.06;5096308;27;45368;-61
2022/08/10 02:06:16;;;;;;;;;6.75;4.00;;;;;22.56;45.04;101541.78;5078568;27;45382;-60
2022/08/10 02:08:44;;;;;;;;;4.00;4.00;;;;;22.50;45.13;101538.75;5096699;27;45315;-61
2022/08/10 02:11:11;;;;;;;;;6.33;5.00;;;;;22.49;45.39;101531.63;5097034;27;45282;-63
2022/08/10 02:13:38;;;;;;;;;5.67;5.00;;;;;22.43;45.08;101530.34;5097086;27;45383;-61
2022/08/10 02:16:06;;;;;;;;;4.00;4.00;;;;;22.43;45.36;101526.78;5097051;27;45525;-61
2022/08/10 02:18:33;;;;;;;;;6.00;6.00;;;;;22.33;45.26;101527.59;5078191;27;45442;-63
2022/08/10 02:21:03;;;;;;;;;5.33;5.33;;;;;22.30;45.78;101533.31;5098013;27;45443;-60
2022/08/10 02:23:31;;;;;;;;;5.00;5.00;;;;;22.26;45.50;101531.84;5100752;27;45285;-62
2022/08/10 02:25:59;;;;;;;;;4.33;4.33;;;;;22.16;46.03;101533.72;5062322;28;45402;-61
2022/08/10 02:28:28;;;;;;;;;6.00;6.00;;;;;22.19;45.98;101551.53;5078805;28;45333;-60
2022/08/10 02:30:59;;;;;;;;;5.25;5.25;;;;;22.16;46.00;101547.25;5080020;28;45311;-62
2022/08/10 02:33:25;;;;;;;;;5.00;5.00;;;;;22.13;46.14;101555.63;5078512;28;45423;-60
2022/08/10 02:35:52;;;;;;;;;7.00;5.67;;;;;22.07;46.08;101548.06;5080582;28;45280;-62
2022/08/10 02:38:24;;;;;;;;;5.00;5.00;;;;;22.02;46.46;101544.91;5080091;28;47228;-61
2022/08/10 02:41:00;;;;;;;;;5.00;5.00;;;;;22.03;46.45;101543.91;5080042;28;45455;-60
2022/08/10 02:43:33;;;;;;;;;5.00;5.00;;;;;22.05;46.60;101545.50;5080010;28;45207;-64
2022/08/10 02:46:09;;;;;;;;;8.33;5.00;;;;;22.11;46.10;101546.78;5079998;28;45408;-62
2022/08/10 02:48:57;;;;;;;;;6.00;6.00;;;;;22.14;46.31;101554.66;5079221;28;46731;-60
2022/08/10 02:51:42;;;;;;;;;4.00;3.00;;;;;22.13;45.80;101549.34;5063093;27;45248;-59
2022/08/10 02:54:15;;;;;;;;;3.00;3.00;;;;;22.13;46.02;101552.94;5081716;27;45716;-62
2022/08/10 02:56:52;;;;;;;;;8.00;6.00;;;;;22.13;45.89;101555.63;5100291;27;45421;-64
2022/08/10 02:59:33;;;;;;;;;6.00;4.33;;;;;22.10;45.82;101545.06;5099509;27;45298;-64
2022/08/10 03:02:03;;;;;;;;;6.33;4.00;;;;;22.09;45.98;101559.63;5100089;27;45427;-67
2022/08/10 03:04:42;;;;;;;;;6.50;6.00;;;;;22.07;46.04;101558.91;5099851;27;45903;-61
2022/08/10 03:07:13;;;;;;;;;6.00;6.00;;;;;22.06;46.03;101551.78;5100159;27;45314;-64
2022/08/10 03:09:40;;;;;;;;;5.00;5.00;;;;;22.10;46.48;101557.78;5099879;27;45999;-60
2022/08/10 03:12:07;;;;;;;;;5.00;3.50;;;;;22.07;46.43;101548.94;5099739;27;45446;-61
2022/08/10 03:14:36;;;;;;;;;6.00;4.67;;;;;22.05;46.42;101547.31;5099177;27;45373;-61
2022/08/10 03:17:02;;;;;;;;;2.75;2.75;;;;;22.07;46.49;101558.91;5081588;27;45255;-62
2022/08/10 03:19:32;;;;;;;;;6.75;6.75;;;;;22.08;46.10;101550.63;5099252;27;46529;-62
2022/08/10 03:21:58;;;;;;;;;5.33;5.00;;;;;22.10;46.57;101553.22;5099541;27;45440;-61
2022/08/10 03:24:26;;;;;;;;;6.00;5.33;;;;;21.98;46.17;101535.31;5098487;27;45420;-62
2022/08/10 03:26:54;;;;;;;;;4.00;4.00;;;;;22.04;45.94;101541.06;5100363;27;45215;-61
2022/08/10 03:29:22;;;;;;;;;2.00;2.00;;;;;22.02;46.76;101539.47;5100295;27;45717;-64
2022/08/10 03:31:49;;;;;;;;;6.25;5.00;;;;;21.95;46.72;101538.28;5081217;27;45444;-63
2022/08/10 03:34:16;;;;;;;;;6.00;6.00;;;;;21.93;46.51;101534.88;5099458;27;45393;-62
2022/08/10 03:36:42;;;;;;;;;4.00;4.00;;;;;21.96;46.42;101540.00;5100052;27;45226;-63
2022/08/10 03:39:08;;;;;;;;;5.00;5.00;;;;;21.95;46.59;101538.28;5099327;27;46376;-62
2022/08/10 03:41:42;;;;;;;;;6.50;6.50;;;;;21.95;46.35;101536.44;5098871;27;45290;-65
2022/08/10 03:44:11;;;;;;;;;5.00;4.00;;;;;21.85;46.87;101537.38;5099156;27;45321;-64
2022/08/10 03:46:40;;;;;;;;;6.00;5.00;;;;;21.87;46.63;101547.09;5099357;27;45642;-60
2022/08/10 03:49:07;;;;;;;;;5.00;4.67;;;;;21.87;46.64;101547.09;5096826;27;47033;-65
2022/08/10 03:51:34;;;;;;;;;7.00;5.00;;;;;21.84;46.90;101543.81;5099163;27;45319;-62
2022/08/10 03:54:01;;;;;;;;;5.00;5.00;;;;;21.77;47.23;101546.22;5099127;27;45254;-65
2022/08/10 03:56:28;;;;;;;;;5.67;5.67;;;;;21.64;47.24;101546.44;5099055;27;45476;-60
2022/08/10 03:58:53;;;;;;;;;9.00;5.33;;;;;21.58;47.39;101541.53;5099041;27;46117;-61
2022/08/10 04:01:20;;;;;;;;;7.00;5.67;;;;;21.62;47.26;101558.38;5098686;27;45428;-61
2022/08/10 04:03:45;;;;;;;;;5.33;5.33;;;;;21.62;47.48;101558.38;5099175;27;45234;-64
2022/08/10 04:06:11;;;;;;;;;6.67;6.67;;;;;21.57;47.23;101539.81;5099371;27;45513;-62
2022/08/10 04:08:41;;;;;;;;;6.00;6.00;;;;;21.64;46.98;101551.00;5099371;27;45376;-63
2022/08/10 04:11:08;;;;;;;;;8.00;7.00;;;;;21.49;47.33;101532.38;5097286;27;45406;-66
2022/08/10 04:13:34;;;;;;;;;9.00;6.00;;;;;21.49;47.90;101542.38;5080776;27;45455;-65
2022/08/10 04:15:59;;;;;;;;;9.00;5.67;;;;;21.48;47.91;101551.44;5098805;27;45632;-63
2022/08/10 04:18:24;;;;;;;;;8.00;6.33;;;;;21.43;47.86;101548.28;5098784;27;45381;-63
2022/08/10 04:20:59;;;;;;;;;6.00;6.00;;;;;21.43;47.75;101548.28;5098540;27;45393;-64
2022/08/10 04:23:29;;;;;;;;;8.33;7.33;;;;;21.47;47.76;101558.72;5099126;27;45409;-61
2022/08/10 04:25:55;;;;;;;;;7.00;7.00;;;;;21.46;47.93;101564.25;5099126;27;45513;-63
2022/08/10 04:28:22;;;;;;;;;5.00;5.00;;;;;21.42;48.01;101546.56;5098360;27;45984;-60
2022/08/10 04:30:50;;;;;;;;;7.00;4.67;;;;;21.46;47.88;101554.28;5098343;27;46148;-62
2022/08/10 04:33:19;;;;;;;;;7.67;7.67;;;;;21.42;48.21;101557.41;5098541;27;45222;-63
2022/08/10 04:35:46;;;;;;;;;6.67;5.00;;;;;21.42;48.06;101549.28;5098404;27;45489;-63
2022/08/10 04:38:13;;;;;;;;;5.00;5.00;;;;;21.43;48.14;101554.56;5079694;27;46770;-62
2022/08/10 04:40:40;;;;;;;;;5.00;5.00;;;;;21.43;47.71;101557.25;5097746;27;45359;-60
2022/08/10 04:43:06;;;;;;;;;7.67;5.00;;;;;21.44;47.86;101555.41;5098198;27;45362;-63
2022/08/10 04:45:32;;;;;;;;;6.33;6.33;;;;;21.38;48.14;101555.97;5100997;27;45223;-61
2022/08/10 04:47:58;;;;;;;;;8.33;8.00;;;;;21.37;48.23;101570.47;5100716;27;47038;-61
2022/08/10 04:50:23;;;;;;;;;6.00;6.00;;;;;21.33;48.36;101558.19;5098953;27;45676;-61
2022/08/10 04:52:52;;;;;;;;;6.33;5.00;;;;;21.25;48.12;101557.97;5097142;27;45339;-64
2022/08/10 04:55:17;;;;;;;;;5.00;5.00;;;;;21.25;48.68;101566.97;5098541;27;45267;-61
2022/08/10 04:57:43;;;;;;;;;4.00;4.00;;;;;21.27;48.48;101564.13;5098094;27;46747;-63
2022/08/10 05:00:09;;;;;;;;;7.67;6.00;;;;;21.25;48.79;101574.22;5097983;27;45420;-62
2022/08/10 05:02:34;;;;;;;;;6.33;5.67;;;;;21.30;48.33;101577.41;5098299;27;45294;-61
2022/08/10 05:05:00;;;;;;;;;6.00;6.00;;;;;21.31;48.44;101585.38;5080196;27;45892;-60
2022/08/10 05:07:25;;;;;;;;;7.67;5.00;;;;;21.31;48.66;101577.25;5098127;27;45428;-62
2022/08/10 05:09:53;;;;;;;;;7.00;6.00;;;;;21.35;48.22;101583.25;5098024;27;45294;-62
2022/08/10 05:12:18;;;;;;;;;7.00;7.00;;;;;21.30;48.53;101569.28;5097945;27;45153;-64
2022/08/10 05:14:44;;;;;;;;;6.00;6.00;;;;;21.30;48.58;101578.25;5098099;27;45351;-63
2022/08/10 05:17:09;;;;;;;;;7.33;5.33;;;;;21.27;48.91;101583.06;5097600;27;45295;-60
2022/08/10 05:19:35;;;;;;;;;6.00;6.00;;;;;21.24;49.01;101583.31;5096884;27;45310;-65
2022/08/10 05:22:01;;;;;;;;;4.67;4.67;;;;;21.21;49.02;101579.00;5098104;27;45263;-63
2022/08/10 05:24:26;;;;;;;;;6.00;6.00;;;;;21.12;49.05;101564.44;5079786;27;45416;-61
2022/08/10 05:26:52;;;;;;;;;5.67;5.67;;;;;21.23;49.04;101584.31;5095704;27;45997;-63
2022/08/10 05:29:17;;;;;;;;;6.00;4.33;;;;;21.19;49.01;101580.97;5097269;27;45329;-64
2022/08/10 05:31:42;;;;;;;;;7.33;7.33;;;;;21.19;48.71;101579.13;5097435;27;45405;-61
2022/08/10 05:34:08;;;;;;;;;6.00;6.00;;;;;21.21;49.34;101582.56;5095969;27;45475;-64
2022/08/10 05:36:33;;;;;;;;;6.67;6.67;;;;;21.24;48.99;101591.44;5096909;27;46432;-63
2022/08/10 05:39:01;;;;;;;;;7.00;5.33;;;;;21.20;48.97;101564.63;5078004;27;45287;-60
2022/08/10 05:41:29;;;;;;;;;11.33;7.00;;;;;21.28;48.94;101576.69;5097258;27;45311;-61
2022/08/10 05:43:55;;;;;;;;;6.67;6.67;;;;;21.34;48.83;101592.38;5097601;27;45560;-62
2022/08/10 05:46:21;;;;;;;;;8.33;7.33;;;;;21.34;48.75;101586.97;5098142;27;45471;-61
2022/08/10 05:48:47;;;;;;;;;8.67;8.33;;;;;21.31;48.91;101588.09;5097373;27;45485;-61
2022/08/10 05:51:13;;;;;;;;;7.00;7.00;;;;;21.29;48.84;101589.22;5097683;27;45462;-62
2022/08/10 05:53:38;;;;;;;;;8.00;7.00;;;;;21.32;48.57;101589.81;5097243;27;45378;-60
2022/08/10 05:56:06;;;;;;;;;10.33;7.00;;;;;21.33;48.51;101590.66;5096093;27;45330;-62
2022/08/10 05:58:33;;;;;;;;;7.33;7.33;;;;;21.33;48.89;101582.53;5097225;27;45219;-63
2022/08/10 06:01:02;;;;;;;;;7.00;6.00;;;;;21.32;49.03;101589.81;5096715;27;45437;-60
2022/08/10 06:03:34;;;;;;;;;7.00;5.33;;;;;21.29;48.70;101595.47;5097432;27;45551;-61
2022/08/10 06:06:03;;;;;;;;;6.00;6.00;;;;;21.29;48.93;101591.91;5097115;27;45433;-61
2022/08/10 06:08:32;;;;;;;;;4.67;4.67;;;;;21.27;48.99;101596.59;5096856;27;45381;-65
2022/08/10 06:11:02;;;;;;;;;6.00;6.00;;;;;21.29;48.84;101586.50;5097323;27;45420;-61
2022/08/10 06:16:16;;;;;;;;;7.00;7.00;;;;;21.34;49.06;101593.22;5097019;27;45416;-65
2022/08/10 06:18:42;;;;;;;;;13.00;8.67;;;;;21.37;49.05;101592.13;5095673;27;45268;-62
2022/08/10 06:21:10;;;;;;;;;7.67;7.67;;;;;21.31;49.15;101587.22;5096838;27;45273;-61
2022/08/10 06:23:37;;;;;;;;;8.33;6.67;;;;;21.32;49.00;101597.91;5097092;27;45489;-63
2022/08/10 06:26:04;;;;;;;;;9.67;8.33;;;;;21.37;48.84;101594.84;5096962;27;46446;-63
2022/08/10 06:28:33;;;;;;;;;12.00;10.33;;;;;21.43;48.95;101597.84;5078180;27;45432;-63
2022/08/10 06:31:01;;;;;;;;;7.00;7.00;;;;;21.49;48.87;101596.50;5096331;27;45407;-62
2022/08/10 06:33:30;;;;;;;;;8.33;8.33;;;;;21.56;48.43;101597.66;5096718;27;45321;-63
2022/08/10 06:35:58;;;;;;;;;8.00;8.00;;;;;21.63;48.72;101606.97;5096931;27;46144;-62
2022/08/10 06:38:25;;;;;;;;;7.00;7.00;;;;;21.63;48.65;101598.00;5079227;27;45331;-63
2022/08/10 06:40:54;;;;;;;;;9.00;7.00;;;;;21.71;48.34;101606.28;5099459;27;45771;-62
2022/08/10 06:43:23;;;;;;;;;10.00;9.00;;;;;21.71;48.10;101590.91;5082911;27;44997;-63
2022/08/10 06:46:00;;;;;;;;;8.00;4.33;;;;;21.79;47.85;101599.22;5097751;27;46612;-62
2022/08/10 06:48:31;;;;;;;;;8.33;8.33;;;;;21.80;48.22;101600.09;5078470;27;45263;-61
2022/08/10 06:51:00;;;;;;;;;7.00;7.00;;;;;21.81;47.89;101601.81;5096912;27;45350;-63
2022/08/10 06:53:35;;;;;;;;;7.67;7.67;;;;;21.92;47.91;101609.00;5095381;27;45492;-63
2022/08/10 06:56:10;;;;;;;;;10.00;7.00;;;;;21.96;48.00;101602.31;5096292;27;45387;-63
2022/08/10 06:58:40;;;;;;;;;8.67;8.67;;;;;21.96;47.58;101602.31;5079585;27;45224;-61
2022/08/10 07:01:11;;;;;;;;;8.00;8.00;;;;;22.05;47.88;101612.34;5095813;27;45355;-63
2022/08/10 07:03:43;;;;;;;;;10.00;7.00;;;;;22.10;47.77;101607.38;5096715;27;45385;-63
2022/08/10 07:06:12;;;;;;;;;16.33;11.00;;;;;22.12;47.57;101604.53;5077846;27;46831;-65
2022/08/10 07:08:40;;;;;;;;;8.00;8.00;;;;;22.16;47.02;101608.72;5099304;27;45398;-62
2022/08/10 07:11:07;;;;;;;;;7.00;6.67;;;;;22.18;47.48;101604.88;5099865;27;45441;-62
2022/08/10 07:13:36;;;;;;;;;9.00;7.00;;;;;22.25;46.78;101603.31;5081819;27;45629;-63
2022/08/10 07:16:06;;;;;;;;;9.67;8.67;;;;;22.27;47.08;101603.19;5099244;27;46357;-61
2022/08/10 07:18:32;;;;;;;;;7.33;7.33;;;;;22.29;46.88;101601.22;5099312;27;45270;-63
2022/08/10 07:21:00;;;;;;;;;8.00;8.00;;;;;22.38;47.07;101600.34;5099568;27;45496;-63
2022/08/10 07:23:28;;;;;;;;;9.67;8.00;;;;;22.44;46.68;101604.38;5099704;27;45352;-63
2022/08/10 07:25:57;;;;;;;;;11.00;9.00;;;;;22.48;46.93;101597.69;5098858;27;46231;-63
2022/08/10 07:28:23;;;;;;;;;7.00;7.00;;;;;22.53;46.36;101598.16;5081287;27;45425;-63
2022/08/10 07:30:50;;;;;;;;;9.67;9.67;;;;;22.55;46.33;101597.00;5100997;27;45262;-63
2022/08/10 07:33:18;;;;;;;;;11.33;9.67;;;;;22.53;46.55;101581.88;5081493;27;45542;-64
2022/08/10 07:35:46;;;;;;;;;10.67;8.00;;;;;22.61;46.19;101592.88;5099093;27;45986;-64
2022/08/10 07:38:23;;;;;;;;;7.33;7.33;;;;;22.62;46.19;101581.03;5099227;27;45263;-65
2022/08/10 07:40:50;;;;;;;;;7.00;7.00;;;;;22.72;45.92;101595.47;5099289;27;45294;-65
2022/08/10 07:43:19;;;;;;;;;9.67;8.67;;;;;22.76;46.06;101601.44;5099293;27;45603;-62
2022/08/10 07:45:48;;;;;;;;;8.00;8.00;;;;;22.81;46.27;101599.19;5098776;27;47062;-62
2022/08/10 07:48:31;;;;;;;;;8.33;8.33;;;;;22.86;45.53;101602.34;5098590;27;45321;-62
2022/08/10 07:50:59;;;;;;;;;7.67;7.33;;;;;22.91;46.13;101603.63;5097733;27;45373;-62
2022/08/10 07:53:27;;;;;;;;;9.00;9.00;;;;;22.93;45.62;101598.94;5099048;27;45332;-62
2022/08/10 07:55:54;;;;;;;;;10.00;9.00;;;;;23.01;45.29;101603.66;5098784;27;46428;-63
2022/08/10 07:58:26;;;;;;;;;7.25;7.25;;;;;23.01;45.07;101598.22;5098477;27;45442;-62
2022/08/10 08:00:53;;;;;;;;;10.67;10.67;;;;;23.10;45.10;101605.53;5097479;27;45267;-63
2022/08/10 08:03:27;;;;;;;;;9.33;9.33;;;;;23.12;45.11;101602.66;5099291;27;45556;-64
2022/08/10 08:05:55;;;;;;;;;7.25;6.75;;;;;23.19;44.58;101606.53;5098224;27;45436;-63
2022/08/10 08:08:21;;;;;;;;;8.67;8.67;;;;;23.24;44.58;101601.50;5098765;27;45580;-62
2022/08/10 08:10:47;;;;;;;;;8.33;8.00;;;;;23.33;44.86;101613.38;5099011;27;45272;-63
2022/08/10 08:13:15;;;;;;;;;9.00;9.00;;;;;23.34;44.54;101605.09;5098831;27;45242;-68
2022/08/10 08:15:42;;;;;;;;;10.67;8.33;;;;;23.44;44.32;101610.50;5098877;27;46075;-62
2022/08/10 08:18:09;;;;;;;;;9.75;9.75;;;;;23.49;44.39;101603.63;5098280;27;45442;-63
2022/08/10 08:20:35;;;;;;;;;12.00;10.25;;;;;23.53;43.74;101598.75;5079789;27;45693;-63
2022/08/10 08:23:02;;;;;;;;;9.25;9.25;;;;;23.54;43.62;101585.03;5080199;27;45906;-63
2022/08/10 08:25:29;;;;;;;;;8.50;8.50;;;;;23.66;43.84;101596.63;5097871;27;46645;-63
2022/08/10 08:27:56;;;;;;;;;9.00;8.25;;;;;23.73;43.89;101595.06;5097192;27;45342;-63
2022/08/10 08:30:23;;;;;;;;;8.00;7.00;;;;;23.84;43.59;101580.44;5098912;27;45476;-64
2022/08/10 08:32:49;;;;;;;;;9.00;9.00;;;;;24.02;43.15;101585.94;5098697;27;45469;-63
2022/08/10 08:35:17;;;;;;;;;8.50;8.50;;;;;24.37;42.88;101585.25;5098132;27;46264;-64
2022/08/10 08:37:46;;;;;;;;;9.50;9.50;;;;;24.89;42.49;101583.59;5079707;27;45430;-61
2022/08/10 08:40:23;;;;;;;;;10.25;9.75;;;;;25.55;41.17;101587.78;5098124;27;45275;-62
2022/08/10 08:43:12;;;;;;;;;8.25;8.25;;;;;26.15;40.23;101580.47;5098344;27;45492;-63
2022/08/10 08:45:56;;;;;;;;;10.50;8.50;;;;;26.74;37.13;101577.81;5098037;27;46026;-64
2022/08/10 08:48:44;;;;;;;;;10.50;10.00;;;;;27.22;37.93;101573.47;5097856;27;45894;-64
2022/08/10 08:51:34;;;;;;;;;6.75;6.75;;;;;27.77;36.16;101575.47;5098593;27;45271;-63
2022/08/10 08:54:32;;;;;;;;;10.00;8.25;;;;;28.28;35.14;101571.41;5098121;27;45405;-65
2022/08/10 08:57:07;;;;;;;;;10.75;10.75;;;;;28.86;34.51;101563.69;5079296;27;46795;-61
2022/08/10 09:00:10;;;;;;;;;12.00;11.60;;;;;29.43;32.46;101568.72;5097739;27;45231;-64
2022/08/10 09:03:04;;;;;;;;;10.00;10.00;;;;;29.70;31.91;101570.91;5098010;27;45397;-64
2022/08/10 09:06:12;;;;;;;;;10.00;10.00;;;;;30.13;31.89;101557.41;5098086;27;45345;-64
2022/08/10 09:09:28;;;;;;;;;5.40;5.40;;;;;30.54;31.87;101555.81;5059116;27;46118;-64
2022/08/10 09:12:32;;;;;;;;;10.00;10.00;;;;;31.07;31.27;101561.88;5052367;27;45389;-64
2022/08/10 09:15:10;;;;;;;;;9.80;9.00;;;;;31.43;29.56;101552.72;5096708;27;45270;-64
2022/08/10 09:18:01;;;;;;;;;7.00;7.00;;;;;31.61;30.37;101536.53;5098770;27;45323;-64
2022/08/10 09:20:45;;;;;;;;;9.20;8.20;;;;;31.97;27.91;101555.63;5097423;27;46330;-64
2022/08/10 09:23:23;;;;;;;;;7.80;7.80;;;;;32.05;28.63;101546.38;5097945;27;45417;-65
2022/08/10 09:26:00;;;;;;;;;11.00;11.00;;;;;32.25;27.68;101544.53;5097415;27;45205;-64
2022/08/10 09:28:30;;;;;;;;;9.60;9.00;;;;;32.57;27.80;101550.41;5079164;27;45324;-63
2022/08/10 09:31:05;;;;;;;;;12.00;9.20;;;;;32.89;27.88;101536.94;5095752;27;46316;-63
2022/08/10 09:33:56;;;;;;;;;9.40;9.40;;;;;33.17;27.16;101540.34;5097056;27;45316;-64
2022/08/10 09:36:32;;;;;;;;;9.00;9.00;;;;;33.44;27.03;101547.56;5080766;27;45419;-62
2022/08/10 09:39:25;;;;;;;;;11.00;9.40;;;;;33.70;27.05;101532.88;5097207;27;45378;-63
2022/08/10 09:42:04;;;;;;;;;9.80;7.20;;;;;34.03;26.12;101531.16;5079332;27;46250;-64
2022/08/10 09:44:29;;;;;;;;;9.80;9.00;;;;;34.30;24.59;101532.72;5096930;27;45393;-64
2022/08/10 09:46:55;;;;;;;;;10.50;8.75;;;;;34.47;25.48;101536.69;5097250;27;45440;-64
2022/08/10 09:49:56;;;;;;;;;7.75;7.00;;;;;34.76;25.52;101523.34;5097289;27;45384;-66
2022/08/10 09:52:46;;;;;;;;;9.80;9.00;;;;;34.80;24.37;101530.97;5072635;27;46177;-63
2022/08/10 09:55:36;;;;;;;;;8.00;8.00;;;;;34.68;24.59;101531.91;5097341;27;45345;-63
2022/08/10 09:58:38;;;;;;;;;8.20;7.20;;;;;34.90;25.54;101522.22;5097186;27;45691;-62
2022/08/10 10:01:19;;;;;;;;;8.20;8.00;;;;;35.28;23.83;101521.25;5095845;27;45699;-63
2022/08/10 10:03:54;;;;;;;;;7.60;7.60;;;;;35.33;24.19;101519.50;5096657;27;45484;-63
2022/08/10 10:06:48;;;;;;;;;10.20;9.00;;;;;35.50;24.03;101507.88;5078190;27;45386;-64
2022/08/10 10:09:26;;;;;;;;;15.40;12.60;;;;;35.43;23.42;101500.53;5097398;27;45393;-64
2022/08/10 10:12:13;;;;;;;;;8.80;8.80;;;;;35.34;22.62;101517.59;5096766;27;45332;-63
2022/08/10 10:17:58;;;;;;;;;8.40;8.00;;;;;34.75;23.74;101507.81;5097017;27;45248;-65
2022/08/10 10:20:34;;;;;;;;;8.20;7.00;;;;;34.53;25.13;101502.69;5097108;27;45360;-64
2022/08/10 10:23:27;;;;;;;;;8.00;8.00;;;;;34.39;24.37;101503.84;5097253;27;45472;-64
2022/08/10 10:26:16;;;;;;;;;8.20;7.40;;;;;34.13;25.20;101501.19;5076900;27;45928;-64
2022/08/10 10:28:45;;;;;;;;;10.00;10.00;;;;;33.88;25.00;101498.31;5075810;28;45243;-64
2022/08/10 10:31:31;;;;;;;;;9.80;9.80;;;;;33.46;24.93;101496.88;5076363;27;45326;-64
2022/08/10 10:34:20;;;;;;;;;10.40;9.80;;;;;33.21;25.93;101486.50;5076409;27;45281;-63
2022/08/10 10:36:48;;;;;;;;;8.00;8.00;;;;;32.88;25.13;101471.88;5074692;28;47555;-64
2022/08/10 10:39:17;;;;;;;;;16.40;12.60;;;;;32.59;25.32;101482.22;5076220;27;45516;-64
2022/08/10 10:41:47;;;;;;;;;9.80;9.80;;;;;32.31;26.71;101485.09;5075487;28;45379;-65
2022/08/10 10:44:24;;;;;;;;;6.40;6.40;;;;;32.14;26.23;101478.22;5080237;27;45631;-67
2022/08/10 10:46:56;;;;;;;;;7.00;7.00;;;;;32.05;26.04;101480.34;5079762;28;46588;-64
2022/08/10 10:49:27;;;;;;;;;10.00;10.00;;;;;31.95;26.15;101474.34;5079070;28;45441;-63
2022/08/10 10:52:17;;;;;;;;;10.20;9.20;;;;;31.76;26.50;101464.09;5077968;28;45389;-64
2022/08/10 10:55:00;;;;;;;;;11.20;9.80;;;;;31.78;26.46;101475.78;5079369;27;45322;-65
2022/08/10 10:57:45;;;;;;;;;4.60;4.60;;;;;31.72;25.42;101466.38;5079183;28;46605;-64
2022/08/10 11:00:13;;;;;;;;;8.00;8.00;;;;;31.67;26.93;101460.66;5094818;27;45396;-62
2022/08/10 11:02:56;;;;;;;;;6.80;6.80;;;;;31.60;25.50;101457.84;5079406;27;45344;-64
2022/08/10 11:05:41;;;;;;;;;7.40;7.40;;;;;31.46;24.44;101447.00;5079222;28;45267;-63
2022/08/10 11:08:23;;;;;;;;;8.80;7.20;;;;;31.36;25.38;101452.84;5077681;28;46592;-63
2022/08/10 11:10:56;;;;;;;;;8.40;8.00;;;;;31.40;24.09;101457.75;5079366;27;45406;-64
2022/08/10 11:13:22;;;;;;;;;6.80;6.80;;;;;31.43;23.30;101464.75;5079723;27;45417;-63
2022/08/10 11:16:27;;;;;;;;;8.75;8.75;;;;;31.41;24.46;101447.59;5079635;28;45554;-64
2022/08/10 11:18:55;;;;;;;;;9.40;8.40;;;;;31.45;24.58;101437.91;5062515;27;46378;-63
2022/08/10 11:21:41;;;;;;;;;7.20;7.20;;;;;31.46;23.93;101439.59;5079444;28;45460;-64
2022/08/10 11:24:19;;;;;;;;;7.00;7.00;;;;;31.48;24.06;101433.88;5084057;27;45219;-63
2022/08/10 11:26:57;;;;;;;;;5.80;5.80;;;;;31.55;23.91;101446.63;5100055;27;45337;-64
2022/08/10 11:29:42;;;;;;;;;7.00;7.00;;;;;31.54;22.23;101444.09;5099857;27;45901;-64
2022/08/10 11:32:16;;;;;;;;;6.60;6.60;;;;;31.60;23.37;101427.59;5099602;27;45463;-63
2022/08/10 11:35:00;;;;;;;;;7.00;7.00;;;;;31.70;23.30;101428.09;5099763;27;45432;-65
2022/08/10 11:37:37;;;;;;;;;8.00;6.60;;;;;31.75;22.37;101419.25;5099518;27;45415;-65
2022/08/10 11:40:05;;;;;;;;;7.20;7.20;;;;;31.81;23.46;101428.59;5099111;27;46355;-64
2022/08/10 11:42:52;;;;;;;;;9.80;6.80;;;;;31.92;23.80;101419.75;5099123;27;45423;-64
2022/08/10 11:45:27;;;;;;;;;9.00;8.40;;;;;31.99;23.20;101415.94;5098599;27;45321;-64
2022/08/10 11:47:57;;;;;;;;;9.60;8.60;;;;;32.02;22.67;101411.94;5099673;27;45325;-65
2022/08/10 11:50:29;;;;;;;;;8.60;8.60;;;;;32.09;22.70;101420.22;5097868;27;46272;-64
2022/08/10 11:53:10;;;;;;;;;9.00;7.00;;;;;32.14;23.55;101424.03;5097404;27;45617;-63